Tri-State/Milton J. Ferguson Field
KHTS : now visible

Airfield :











YOU CAN JOIN US ON...

 
LOGIN :

Register | Disclaimer

   EN    FR    IT 

 









Legend :    VFR   Marginal VFR   IFR   Intensive IFR   Very Intensive IFR
Visi :
Ceiling :
>= 8 km
>= 3000ft
5 to 8 km
1000 to 3000 ft
1500m to 5 km
500 to 1000 ft
800 to 1500m
200 to 500 ft
< 800m
< 200 ft
Symbols :   Thunderstorms  Fog  Heavy snow  Heavy precipitations  Wind > 20 kt






- Airport Elevation : 828 ft
- IATA code : HTS


KHTS - Tri-State/Milton J. Ferguson Field

CURRENT METAR :
  • 230051Z 00000KT 10SM CLR 04/01 A3012 RMK AO2 SLP199 T00440006

EXPIRED METARs :
  • 222351Z 00000KT 10SM CLR 05/02 A3011 RMK AO2 SLP198 T00500017 10094 20050 51013
  • 222321Z 00000KT 10SM SCT029 06/01 A3010 RMK AO2 T00560011
  • 222251Z 36005KT 10SM OVC027 06/02 A3010 RMK AO2 SLP194 T00610022

TAF KHTS
Valid from the 23 at 00:00 until the 24 at 00:00 UTC


222330Z 2300/2324 VRB03KT P6SM OVC025
FM230300 00000KT P6SM SCT060
FM231300 07004KT P6SM OVC030
FM231700 07004KT 6SM -RA OVC025
FM232100 03004KT 5SM RA OVC008



MET'MAP, your aeronautical weather chart ! - Copyright ORBIFLY December 2007 - Disclaimer

ORBIFLY MET'MAP TEAM :

Programming & Development : Alexandra Zaïnal
Concept & Development : Baudouin d'Aumeries
Co-Development & Prog : Marc-Olivier Méhu
Technical & hardware support : Manuel Goepfert

Contact : metmap@orbifly.com




SOURCES & CREDITS :

   NOAA       Earth
Advisory